Time;durP1;ratioP1;P1;durP2;ratioP2;P2;SDS_P1;SDS_P2;PMS_P1;PMS_P2;Temp;Humidity;BMP_temperature;BMP_pressure;BME280_temperature;BME280_humidity;BME280_pressure;Samples;Min_cycle;Max_cycle;Signal;HPM_P1;HPM_P2
2023/08/29 00:00:26;;;;;;;2.97;1.88;;;11.60;99.90;;;;;;5117225;27;20058;-73
2023/08/29 00:02:53;;;;;;;2.45;1.70;;;11.70;99.90;;;;;;5135203;27;20196;-72
2023/08/29 00:05:19;;;;;;;3.58;2.22;;;11.60;99.90;;;;;;5135135;27;20167;-72
2023/08/29 00:07:45;;;;;;;2.55;1.70;;;11.70;99.90;;;;;;5134782;27;20126;-71
2023/08/29 00:10:11;;;;;;;3.10;1.55;;;11.70;99.90;;;;;;5116778;27;20061;-72
2023/08/29 00:12:37;;;;;;;3.33;1.63;;;11.70;99.90;;;;;;5116371;27;20070;-71
2023/08/29 00:15:04;;;;;;;4.63;1.52;;;11.70;99.90;;;;;;5134995;27;20484;-71
2023/08/29 00:17:30;;;;;;;2.03;1.30;;;11.70;99.90;;;;;;5134199;27;20050;-71
2023/08/29 00:19:56;;;;;;;1.77;1.00;;;11.60;99.90;;;;;;5134717;27;20039;-72
2023/08/29 00:22:21;;;;;;;2.50;1.30;;;11.50;99.90;;;;;;5153974;27;20068;-72
2023/08/29 00:24:48;;;;;;;2.05;1.08;;;11.40;99.90;;;;;;5155521;27;20134;-71
2023/08/29 00:27:14;;;;;;;1.77;1.10;;;11.40;99.90;;;;;;5155661;27;20129;-72
2023/08/29 00:29:42;;;;;;;11.80;2.60;;;11.30;99.90;;;;;;5155508;27;20042;-72
2023/08/29 00:32:08;;;;;;;5.88;1.42;;;11.30;99.90;;;;;;5155369;27;20057;-71
2023/08/29 00:34:33;;;;;;;2.28;1.00;;;11.20;99.90;;;;;;5146272;27;20039;-71
2023/08/29 00:36:59;;;;;;;2.03;1.30;;;11.20;99.90;;;;;;5134460;27;20046;-71
2023/08/29 00:39:25;;;;;;;2.05;1.15;;;11.10;99.90;;;;;;5115596;27;20055;-72
2023/08/29 00:41:51;;;;;;;1.85;1.27;;;11.10;99.90;;;;;;5134447;27;20125;-71
2023/08/29 00:44:17;;;;;;;4.70;1.20;;;11.10;99.90;;;;;;5134838;27;20086;-71
2023/08/29 00:46:44;;;;;;;3.35;1.50;;;11.10;99.90;;;;;;5134798;27;20078;-71
2023/08/29 00:49:11;;;;;;;1.60;0.90;;;11.10;99.90;;;;;;5134613;27;20096;-71
2023/08/29 00:51:38;;;;;;;2.38;1.00;;;11.10;99.90;;;;;;5134450;27;20051;-71
2023/08/29 00:54:04;;;;;;;1.50;0.90;;;11.00;99.90;;;;;;5134371;27;20051;-72
2023/08/29 00:56:30;;;;;;;1.83;0.88;;;10.80;99.90;;;;;;5115872;27;20102;-72
2023/08/29 00:58:56;;;;;;;2.95;1.08;;;10.80;99.90;;;;;;5134306;28;20039;-72
2023/08/29 01:01:22;;;;;;;8.27;1.15;;;10.80;99.90;;;;;;5134333;28;20184;-72
2023/08/29 01:03:47;;;;;;;5.03;1.10;;;10.70;99.90;;;;;;5116321;28;20092;-72
2023/08/29 01:06:14;;;;;;;7.28;1.10;;;10.70;99.90;;;;;;5133964;28;20103;-72
2023/08/29 01:08:43;;;;;;;1.73;0.98;;;10.70;99.90;;;;;;5133770;28;20039;-72
2023/08/29 01:11:30;;;;;;;1.80;1.00;;;10.70;99.90;;;;;;5116563;28;20484;-71
2023/08/29 01:14:33;;;;;;;9.75;1.33;;;10.80;99.90;;;;;;5134236;28;20054;-72
2023/08/29 01:17:13;;;;;;;8.13;1.20;;;10.80;99.90;;;;;;5129026;28;20051;-71
2023/08/29 01:19:40;;;;;;;2.55;1.15;;;10.80;99.90;;;;;;5134290;28;20039;-71
2023/08/29 01:22:34;;;;;;;1.88;1.05;;;10.70;99.90;;;;;;5152532;27;20078;-71
2023/08/29 01:25:09;;;;;;;2.67;1.27;;;10.60;99.90;;;;;;5136985;27;20043;-71
2023/08/29 01:27:36;;;;;;;2.83;1.30;;;10.60;99.90;;;;;;5155082;27;20505;-71
2023/08/29 01:30:03;;;;;;;3.15;1.60;;;10.60;99.90;;;;;;5154765;27;20364;-71
2023/08/29 01:32:30;;;;;;;3.40;1.50;;;10.60;99.90;;;;;;5135508;27;20050;-71
2023/08/29 01:34:57;;;;;;;2.70;1.50;;;10.70;99.90;;;;;;5137230;27;20054;-72
2023/08/29 01:37:23;;;;;;;2.70;1.58;;;10.70;99.90;;;;;;5121466;27;20043;-71
2023/08/29 01:39:48;;;;;;;2.33;1.40;;;10.70;99.90;;;;;;5157998;27;20057;-72
2023/08/29 01:42:14;;;;;;;2.33;1.13;;;10.80;99.90;;;;;;5158810;27;20058;-71
2023/08/29 01:44:40;;;;;;;1.42;0.85;;;10.70;99.90;;;;;;5140087;27;20432;-71
2023/08/29 01:47:05;;;;;;;1.45;0.80;;;10.50;99.90;;;;;;5158477;27;20046;-71
2023/08/29 01:49:34;;;;;;;3.85;1.08;;;10.40;99.90;;;;;;5140003;27;20482;-71
2023/08/29 01:51:59;;;;;;;6.85;1.27;;;10.40;99.90;;;;;;5158278;27;20487;-71
2023/08/29 01:54:26;;;;;;;15.48;1.83;;;10.40;99.90;;;;;;5140460;27;20053;-71
2023/08/29 01:56:54;;;;;;;4.50;1.38;;;10.40;99.90;;;;;;5158644;27;20051;-72
2023/08/29 01:59:20;;;;;;;7.55;1.50;;;10.50;99.90;;;;;;5158793;27;20381;-72
2023/08/29 02:01:46;;;;;;;3.00;1.30;;;10.50;99.90;;;;;;5154647;27;20039;-71
2023/08/29 02:04:11;;;;;;;3.08;0.70;;;10.40;99.90;;;;;;5137547;27;20046;-72
2023/08/29 02:06:37;;;;;;;2.83;1.13;;;10.30;99.90;;;;;;5137559;27;20467;-72
2023/08/29 02:09:03;;;;;;;2.40;1.25;;;10.20;99.90;;;;;;5118297;27;20392;-72
2023/08/29 02:11:29;;;;;;;2.05;1.15;;;10.20;99.90;;;;;;5137006;27;20411;-71
2023/08/29 02:13:54;;;;;;;3.25;1.20;;;10.10;99.90;;;;;;5137312;27;20043;-71
2023/08/29 02:16:20;;;;;;;2.08;1.00;;;10.20;99.90;;;;;;5118820;27;20532;-71
2023/08/29 02:18:46;;;;;;;1.63;0.90;;;10.20;99.90;;;;;;5137672;27;20477;-71
2023/08/29 02:21:11;;;;;;;1.70;1.00;;;10.20;99.90;;;;;;5137150;27;20471;-71
2023/08/29 02:23:37;;;;;;;2.33;1.30;;;10.10;99.90;;;;;;5137298;27;20080;-72
2023/08/29 02:26:04;;;;;;;1.92;1.10;;;10.00;99.90;;;;;;5136679;27;20506;-71
2023/08/29 02:28:35;;;;;;;3.95;1.30;;;10.10;99.90;;;;;;5136964;27;20050;-71
2023/08/29 02:31:04;;;;;;;3.65;1.10;;;10.00;99.90;;;;;;5143123;27;20042;-71
2023/08/29 02:33:30;;;;;;;1.67;1.00;;;10.00;99.90;;;;;;5157567;27;20046;-71
2023/08/29 02:35:57;;;;;;;2.95;1.10;;;9.90;99.90;;;;;;5158136;27;20096;-71
2023/08/29 02:38:22;;;;;;;2.05;1.15;;;9.90;99.90;;;;;;5146506;27;20051;-71
2023/08/29 02:40:48;;;;;;;1.80;1.10;;;10.00;99.90;;;;;;5118470;27;20497;-71
2023/08/29 02:43:14;;;;;;;3.15;1.40;;;10.00;99.90;;;;;;5136816;27;20047;-70
2023/08/29 02:45:39;;;;;;;1.98;1.23;;;10.00;99.90;;;;;;5135833;27;20039;-72
2023/08/29 02:48:05;;;;;;;2.55;1.48;;;10.10;99.90;;;;;;5136316;27;20108;-71
2023/08/29 02:50:32;;;;;;;4.10;1.35;;;10.10;99.90;;;;;;5136162;27;20117;-71
2023/08/29 02:52:58;;;;;;;2.35;1.27;;;10.20;99.90;;;;;;5136689;27;20047;-72
2023/08/29 02:55:24;;;;;;;3.08;1.50;;;10.30;99.90;;;;;;5136542;27;20102;-71
2023/08/29 02:57:49;;;;;;;2.95;1.30;;;10.30;99.90;;;;;;5136651;27;20043;-71
2023/08/29 03:00:15;;;;;;;4.32;1.33;;;10.20;99.90;;;;;;5136246;27;20043;-71
2023/08/29 03:02:42;;;;;;;2.60;1.40;;;10.20;99.90;;;;;;5136297;27;20050;-71
2023/08/29 03:05:08;;;;;;;2.80;1.50;;;10.10;99.90;;;;;;5136519;27;20050;-71
2023/08/29 03:07:33;;;;;;;1.75;1.02;;;10.20;99.90;;;;;;5136426;27;20058;-71
2023/08/29 03:09:59;;;;;;;4.72;1.40;;;10.10;99.90;;;;;;5135947;27;20035;-72
2023/08/29 03:12:25;;;;;;;5.22;1.50;;;10.10;99.90;;;;;;5136094;27;20047;-71
2023/08/29 03:14:54;;;;;;;3.42;1.60;;;10.10;99.90;;;;;;5135983;27;20429;-72
2023/08/29 03:17:21;;;;;;;2.88;1.20;;;10.10;99.90;;;;;;5136796;27;20146;-71
2023/08/29 03:19:47;;;;;;;3.60;1.45;;;10.20;99.90;;;;;;5136063;27;20078;-71
2023/08/29 03:22:13;;;;;;;1.70;1.00;;;10.20;99.90;;;;;;5154854;27;20077;-71
2023/08/29 03:24:39;;;;;;;1.98;1.17;;;10.20;99.90;;;;;;5138591;27;20119;-71
2023/08/29 03:27:05;;;;;;;11.07;1.35;;;10.10;99.90;;;;;;5155902;27;20054;-72
2023/08/29 03:29:31;;;;;;;29.63;2.60;;;10.00;99.90;;;;;;5156470;27;20069;-72
2023/08/29 03:31:56;;;;;;;9.55;1.38;;;9.90;99.90;;;;;;5152320;27;20044;-72
2023/08/29 03:34:22;;;;;;;5.95;1.10;;;9.80;99.90;;;;;;5135865;27;20051;-72
2023/08/29 03:36:48;;;;;;;11.85;1.70;;;9.70;99.90;;;;;;5117562;27;20039;-72
2023/08/29 03:39:14;;;;;;;4.15;1.08;;;9.70;99.90;;;;;;5135137;27;20062;-72
2023/08/29 03:41:39;;;;;;;2.90;1.08;;;9.60;99.90;;;;;;5135639;27;20058;-72
2023/08/29 03:44:05;;;;;;;6.82;1.30;;;9.60;99.90;;;;;;5135701;27;20055;-72
2023/08/29 03:46:31;;;;;;;1.90;1.05;;;9.50;99.90;;;;;;5100313;27;20051;-72
2023/08/29 03:48:57;;;;;;;1.92;1.00;;;9.50;99.90;;;;;;5135913;27;20065;-72
2023/08/29 03:51:23;;;;;;;2.33;1.30;;;9.50;99.90;;;;;;5135218;27;20194;-72
2023/08/29 03:53:48;;;;;;;3.05;1.10;;;9.50;99.90;;;;;;5135696;27;20544;-72
2023/08/29 03:56:15;;;;;;;2.45;1.90;;;9.50;99.90;;;;;;5135351;27;20051;-72
2023/08/29 03:58:40;;;;;;;4.32;1.23;;;9.50;99.90;;;;;;5135234;27;20071;-72
2023/08/29 04:01:07;;;;;;;1.55;0.80;;;9.50;99.90;;;;;;5135048;27;20043;-70
2023/08/29 04:03:33;;;;;;;2.58;1.30;;;9.50;99.90;;;;;;5116871;27;20051;-70
2023/08/29 04:05:59;;;;;;;1.70;0.98;;;9.50;99.90;;;;;;5134833;27;20424;-70
2023/08/29 04:08:24;;;;;;;2.00;1.10;;;9.40;99.90;;;;;;5134613;27;20368;-70
2023/08/29 04:10:50;;;;;;;3.53;1.27;;;9.40;99.90;;;;;;5135015;27;20047;-70
2023/08/29 04:13:16;;;;;;;1.85;1.00;;;9.40;99.90;;;;;;5117047;27;20043;-70
2023/08/29 04:15:42;;;;;;;2.00;1.10;;;9.50;99.90;;;;;;5135126;27;20043;-72
2023/08/29 04:18:08;;;;;;;1.60;0.90;;;9.40;99.90;;;;;;5134977;27;20100;-71
2023/08/29 04:20:34;;;;;;;2.58;1.13;;;9.40;99.90;;;;;;5139840;27;20500;-71
2023/08/29 04:23:03;;;;;;;1.70;1.00;;;9.40;99.90;;;;;;5155503;27;20046;-71
2023/08/29 04:25:34;;;;;;;3.20;0.90;;;9.30;99.90;;;;;;5155385;27;20057;-71
2023/08/29 04:27:59;;;;;;;2.00;0.93;;;9.30;99.90;;;;;;5155959;27;20080;-71
2023/08/29 04:30:25;;;;;;;4.18;1.30;;;9.20;99.90;;;;;;5136053;27;20399;-71
2023/08/29 04:32:51;;;;;;;3.08;1.00;;;9.20;99.90;;;;;;5134249;27;20128;-71
2023/08/29 04:35:17;;;;;;;3.83;0.90;;;9.20;99.90;;;;;;5116283;27;20047;-72
2023/08/29 04:37:47;;;;;;;6.30;1.38;;;9.20;99.90;;;;;;5120882;27;20042;-72
2023/08/29 04:40:14;;;;;;;40.67;3.65;;;9.10;99.90;;;;;;5155001;27;20086;-70
2023/08/29 04:42:43;;;;;;;4.32;1.20;;;9.10;99.90;;;;;;5148197;27;20042;-71
2023/08/29 04:45:10;;;;;;;7.68;1.20;;;9.10;99.90;;;;;;5118266;27;20043;-72
2023/08/29 04:47:36;;;;;;;1.52;0.80;;;9.00;99.90;;;;;;5154864;27;20046;-71
2023/08/29 04:50:03;;;;;;;1.95;0.80;;;9.10;99.90;;;;;;5150229;27;20035;-71
2023/08/29 04:52:29;;;;;;;1.90;1.10;;;9.10;99.90;;;;;;5134196;27;20042;-71
2023/08/29 04:54:55;;;;;;;1.80;0.98;;;9.10;99.90;;;;;;5134083;27;20506;-72
2023/08/29 04:57:21;;;;;;;2.72;1.35;;;9.10;99.90;;;;;;5134428;27;20039;-72
2023/08/29 04:59:48;;;;;;;2.15;1.10;;;9.10;99.90;;;;;;5149679;27;20043;-72
2023/08/29 05:02:14;;;;;;;3.25;1.45;;;9.10;99.90;;;;;;5154908;27;20050;-72
2023/08/29 05:04:42;;;;;;;2.00;1.15;;;9.20;99.90;;;;;;5154738;27;20509;-72
2023/08/29 05:07:08;;;;;;;2.95;1.30;;;9.30;99.90;;;;;;5154837;27;20050;-72
2023/08/29 05:09:34;;;;;;;2.33;1.33;;;9.30;99.90;;;;;;5157488;27;20053;-72
2023/08/29 05:11:59;;;;;;;2.08;1.30;;;9.30;99.90;;;;;;5159398;27;20126;-72
2023/08/29 05:14:25;;;;;;;3.45;1.20;;;9.30;99.90;;;;;;5159281;27;20046;-72
2023/08/29 05:16:51;;;;;;;1.90;1.30;;;9.20;99.90;;;;;;5143683;27;20043;-72
2023/08/29 05:19:16;;;;;;;3.60;1.40;;;9.30;99.90;;;;;;5119986;27;20051;-72
2023/08/29 05:21:42;;;;;;;2.58;1.20;;;9.30;99.90;;;;;;5138038;27;20043;-72
2023/08/29 05:24:08;;;;;;;2.03;1.38;;;9.30;99.90;;;;;;5138370;27;20054;-72
2023/08/29 05:26:33;;;;;;;2.58;1.15;;;9.30;99.90;;;;;;5138489;27;20047;-72
2023/08/29 05:28:59;;;;;;;1.98;1.15;;;9.30;99.90;;;;;;5119891;27;20043;-72
2023/08/29 05:31:25;;;;;;;3.45;1.70;;;9.30;99.90;;;;;;5147547;27;20165;-72
2023/08/29 05:33:51;;;;;;;2.67;1.40;;;9.40;99.90;;;;;;5159170;27;20404;-72
2023/08/29 05:36:16;;;;;;;2.20;1.30;;;9.40;99.90;;;;;;5158724;27;20042;-72
2023/08/29 05:38:42;;;;;;;3.50;1.35;;;9.40;99.90;;;;;;5140081;27;20047;-72
2023/08/29 05:41:08;;;;;;;2.20;1.48;;;9.40;99.90;;;;;;5158576;27;20083;-72
2023/08/29 05:43:34;;;;;;;3.70;1.42;;;9.50;99.90;;;;;;5140464;27;20039;-72
2023/08/29 05:46:00;;;;;;;2.15;1.35;;;9.40;99.90;;;;;;5158376;27;20046;-72
2023/08/29 05:48:26;;;;;;;2.40;1.30;;;9.40;99.90;;;;;;5158772;27;20501;-72
2023/08/29 05:50:51;;;;;;;1.95;1.10;;;9.50;99.90;;;;;;5144129;27;20074;-72
2023/08/29 05:53:18;;;;;;;2.13;1.40;;;9.50;99.90;;;;;;5137851;27;20099;-72
2023/08/29 05:55:45;;;;;;;2.30;1.35;;;9.60;99.90;;;;;;5137727;27;20043;-72
2023/08/29 05:58:11;;;;;;;4.15;1.55;;;9.60;99.90;;;;;;5137150;27;20050;-72
2023/08/29 06:00:37;;;;;;;2.83;1.80;;;9.70;99.90;;;;;;5137519;27;20062;-72
2023/08/29 06:03:04;;;;;;;2.78;1.50;;;9.80;99.90;;;;;;5137294;27;20039;-72
2023/08/29 06:05:31;;;;;;;3.75;1.50;;;9.90;99.90;;;;;;5137410;27;20074;-72
2023/08/29 06:08:01;;;;;;;2.08;1.25;;;10.00;99.90;;;;;;5137161;27;20130;-72
2023/08/29 06:10:28;;;;;;;2.45;1.33;;;10.10;99.90;;;;;;5137245;27;20091;-66
2023/08/29 06:12:54;;;;;;;2.92;1.40;;;10.20;99.90;;;;;;5137523;27;20058;-66
2023/08/29 06:15:21;;;;;;;2.95;1.52;;;10.30;99.90;;;;;;5119090;27;20130;-66
2023/08/29 06:17:46;;;;;;;2.53;1.20;;;10.40;99.90;;;;;;5137171;27;20196;-66
2023/08/29 06:20:13;;;;;;;3.38;2.10;;;10.50;99.90;;;;;;5137191;27;20496;-67
2023/08/29 06:22:39;;;;;;;2.70;1.88;;;10.60;99.90;;;;;;5137105;27;20086;-67
2023/08/29 06:25:05;;;;;;;2.90;2.00;;;10.80;99.90;;;;;;5102360;27;20135;-67
2023/08/29 06:27:30;;;;;;;2.78;1.77;;;10.90;99.90;;;;;;5137219;27;20047;-66
2023/08/29 06:29:56;;;;;;;4.15;2.10;;;11.00;99.90;;;;;;5118634;27;20520;-66
2023/08/29 06:32:22;;;;;;;3.10;2.10;;;11.10;99.90;;;;;;5154605;27;20142;-66
2023/08/29 06:34:48;;;;;;;2.90;1.85;;;11.30;99.90;;;;;;5157663;27;20084;-66
2023/08/29 06:37:14;;;;;;;3.17;2.22;;;11.40;99.90;;;;;;5157183;27;20394;-66
2023/08/29 06:39:40;;;;;;;3.35;2.10;;;11.60;99.90;;;;;;5157169;27;20483;-66
2023/08/29 06:42:06;;;;;;;3.80;2.17;;;11.70;99.90;;;;;;5157505;27;20050;-66
2023/08/29 06:44:32;;;;;;;4.13;2.53;;;11.90;99.90;;;;;;5139272;27;20049;-66
2023/08/29 06:46:57;;;;;;;3.53;2.28;;;12.00;99.90;;;;;;5139361;27;20046;-66
2023/08/29 06:49:23;;;;;;;3.83;2.53;;;12.20;99.90;;;;;;5137065;27;20034;-67
2023/08/29 06:51:50;;;;;;;3.58;2.60;;;12.30;99.90;;;;;;5136768;27;20047;-66
2023/08/29 06:54:15;;;;;;;3.55;2.40;;;12.40;99.90;;;;;;5136369;27;20047;-67
2023/08/29 06:56:41;;;;;;;3.83;2.67;;;12.50;99.90;;;;;;5136658;27;20175;-67
2023/08/29 06:59:07;;;;;;;4.28;2.58;;;12.50;99.90;;;;;;5136494;27;20050;-66
2023/08/29 07:01:33;;;;;;;3.78;2.58;;;12.60;99.90;;;;;;5121115;27;20482;-67
2023/08/29 07:04:00;;;;;;;3.80;2.60;;;12.60;99.90;;;;;;5140932;27;20380;-67
2023/08/29 07:06:26;;;;;;;4.00;2.80;;;12.70;99.90;;;;;;5154266;27;20050;-67
2023/08/29 07:08:52;;;;;;;4.53;2.55;;;12.70;99.90;;;;;;5137891;27;20039;-67
2023/08/29 07:11:17;;;;;;;3.28;1.95;;;12.70;99.90;;;;;;5136260;27;20039;-67
2023/08/29 07:13:43;;;;;;;4.75;2.50;;;12.80;99.90;;;;;;5143366;27;20475;-67
2023/08/29 07:16:09;;;;;;;3.53;2.35;;;12.90;99.90;;;;;;5144225;27;20464;-67
2023/08/29 07:18:34;;;;;;;3.30;2.42;;;12.90;99.90;;;;;;5152575;27;20142;-67
2023/08/29 07:21:01;;;;;;;4.60;2.85;;;13.00;99.90;;;;;;5140708;27;20041;-66
2023/08/29 07:23:28;;;;;;;4.95;3.05;;;13.10;99.90;;;;;;5117154;27;20061;-66
2023/08/29 07:25:53;;;;;;;4.38;2.67;;;13.20;99.90;;;;;;5149976;27;20499;-65
2023/08/29 07:28:19;;;;;;;4.28;2.63;;;13.20;99.90;;;;;;5146543;27;20090;-66
2023/08/29 07:30:51;;;;;;;3.25;2.30;;;13.30;99.90;;;;;;5138469;27;20130;-66
2023/08/29 07:33:17;;;;;;;3.72;2.38;;;13.40;99.90;;;;;;5156159;27;20123;-66
2023/08/29 07:35:45;;;;;;;3.75;2.15;;;13.50;99.90;;;;;;5156128;27;20056;-67
2023/08/29 07:38:12;;;;;;;3.25;2.30;;;13.50;99.90;;;;;;5155417;27;20050;-66
2023/08/29 07:40:38;;;;;;;5.93;2.65;;;13.70;99.90;;;;;;5156333;27;20073;-67
2023/08/29 07:43:05;;;;;;;3.78;2.55;;;13.80;99.90;;;;;;5137955;27;20042;-66
2023/08/29 07:45:31;;;;;;;3.60;2.55;;;14.00;99.90;;;;;;5155707;27;20050;-68
2023/08/29 07:47:57;;;;;;;4.60;2.30;;;14.20;99.90;;;;;;5155904;27;20074;-66
2023/08/29 07:50:23;;;;;;;4.50;2.70;;;14.30;99.90;;;;;;5145174;27;20070;-66
2023/08/29 07:52:48;;;;;;;4.05;2.47;;;14.50;99.90;;;;;;5151281;27;20081;-66
2023/08/29 07:55:14;;;;;;;2.80;2.10;;;14.60;99.90;;;;;;5155526;27;20042;-66
2023/08/29 07:57:40;;;;;;;3.55;2.47;;;14.80;99.90;;;;;;5155613;27;20094;-66
2023/08/29 08:00:10;;;;;;;3.08;2.03;;;15.10;99.90;;;;;;5155586;27;20078;-66
2023/08/29 08:02:39;;;;;;;3.65;2.30;;;15.30;99.90;;;;;;5155573;27;20086;-67
2023/08/29 08:05:06;;;;;;;3.47;1.80;;;15.40;99.90;;;;;;5155821;27;20502;-67
2023/08/29 08:07:32;;;;;;;3.15;1.63;;;15.60;99.90;;;;;;5137166;27;20051;-66
2023/08/29 08:09:58;;;;;;;2.90;1.73;;;15.70;99.90;;;;;;5136139;27;20047;-67
2023/08/29 08:12:23;;;;;;;3.60;2.15;;;15.80;99.90;;;;;;5137565;27;20069;-67
2023/08/29 08:14:51;;;;;;;3.40;1.70;;;15.90;99.90;;;;;;5155676;27;20099;-67
2023/08/29 08:17:17;;;;;;;3.78;1.65;;;16.10;99.90;;;;;;5154419;27;20118;-67
2023/08/29 08:19:42;;;;;;;2.38;1.40;;;16.20;99.90;;;;;;5155029;27;20070;-67
2023/08/29 08:22:09;;;;;;;3.42;1.50;;;16.30;99.90;;;;;;5155300;27;20039;-67
2023/08/29 08:24:34;;;;;;;1.90;1.30;;;16.40;99.90;;;;;;5155242;27;20047;-68
2023/08/29 08:27:00;;;;;;;2.53;1.55;;;16.50;99.90;;;;;;5136638;27;20069;-66
2023/08/29 08:29:25;;;;;;;2.15;1.23;;;16.50;99.90;;;;;;5136254;27;20081;-67
2023/08/29 08:31:51;;;;;;;2.28;1.23;;;16.60;99.90;;;;;;5141377;27;20046;-67
2023/08/29 08:34:17;;;;;;;1.95;1.02;;;16.70;99.90;;;;;;5116259;27;20081;-67
2023/08/29 08:36:43;;;;;;;3.10;1.38;;;16.70;99.90;;;;;;5138352;27;20043;-67
2023/08/29 08:39:08;;;;;;;2.58;1.02;;;16.70;99.90;;;;;;5154170;27;20475;-66
2023/08/29 08:41:35;;;;;;;2.35;0.73;;;16.70;99.90;;;;;;5155112;27;20046;-66
2023/08/29 08:44:04;;;;;;;1.65;0.90;;;16.80;99.90;;;;;;5154135;27;20395;-67
2023/08/29 08:46:31;;;;;;;1.80;0.82;;;16.80;99.90;;;;;;5154602;27;20129;-66
2023/08/29 08:48:58;;;;;;;1.90;0.90;;;16.90;99.90;;;;;;5154683;27;20038;-66
2023/08/29 08:51:26;;;;;;;2.38;0.73;;;16.90;99.90;;;;;;5136695;27;20046;-66
2023/08/29 08:53:54;;;;;;;1.92;0.80;;;16.90;99.90;;;;;;5154557;27;20065;-66
2023/08/29 08:56:20;;;;;;;2.38;0.70;;;16.90;99.90;;;;;;5136450;27;20428;-67
2023/08/29 08:58:46;;;;;;;2.17;1.00;;;17.00;99.90;;;;;;5136409;27;20055;-65
2023/08/29 09:01:12;;;;;;;2.45;0.90;;;17.00;99.90;;;;;;5135991;27;20047;-66
2023/08/29 09:03:40;;;;;;;1.50;0.80;;;17.00;99.90;;;;;;5154564;27;20050;-66
2023/08/29 09:06:07;;;;;;;1.35;0.80;;;17.00;99.90;;;;;;5154031;27;20507;-67
2023/08/29 09:08:33;;;;;;;2.00;0.90;;;17.00;99.90;;;;;;5152438;27;20130;-67
2023/08/29 09:11:03;;;;;;;1.50;0.93;;;17.10;99.90;;;;;;5136652;27;20043;-67
2023/08/29 09:13:30;;;;;;;1.60;0.90;;;17.10;99.90;;;;;;5154923;27;20047;-66
2023/08/29 09:16:01;;;;;;;2.38;0.80;;;17.20;99.90;;;;;;5154471;27;20452;-66
2023/08/29 09:18:31;;;;;;;2.55;1.00;;;17.30;99.90;;;;;;5154792;27;20039;-67
2023/08/29 09:21:04;;;;;;;1.40;0.70;;;17.40;99.90;;;;;;5154906;27;20050;-67
2023/08/29 09:23:36;;;;;;;1.40;0.90;;;17.50;99.90;;;;;;5154588;27;20543;-66
2023/08/29 09:26:01;;;;;;;2.85;1.23;;;17.70;99.90;;;;;;5154861;27;20082;-67
2023/08/29 09:28:29;;;;;;;2.38;0.80;;;17.80;99.90;;;;;;5154678;27;20085;-67
2023/08/29 09:31:15;;;;;;;3.38;1.25;;;18.00;99.90;;;;;;5149062;27;20126;-66
2023/08/29 09:33:41;;;;;;;1.30;0.60;;;18.20;99.90;;;;;;5134235;28;20183;-67
2023/08/29 09:36:07;;;;;;;1.55;0.65;;;18.40;99.90;;;;;;5133899;27;20043;-67
2023/08/29 09:38:34;;;;;;;1.60;0.80;;;18.60;99.90;;;;;;5133287;28;20494;-67
2023/08/29 09:41:00;;;;;;;1.48;0.70;;;18.80;99.90;;;;;;5133875;28;20051;-67
2023/08/29 09:43:30;;;;;;;1.58;0.70;;;18.80;99.90;;;;;;5133566;28;20055;-67
2023/08/29 09:45:56;;;;;;;2.00;0.80;;;18.70;99.90;;;;;;5114862;28;20051;-67
2023/08/29 09:48:22;;;;;;;1.42;0.68;;;18.70;99.90;;;;;;5133525;28;20070;-67
2023/08/29 09:50:50;;;;;;;1.67;1.17;;;18.80;99.90;;;;;;5129413;27;20042;-67
2023/08/29 09:53:17;;;;;;;1.73;0.80;;;18.90;99.90;;;;;;5135827;27;20053;-67
2023/08/29 09:55:59;;;;;;;1.85;0.75;;;19.00;99.90;;;;;;5157201;27;20082;-68
2023/08/29 09:58:29;;;;;;;1.45;0.60;;;19.10;99.90;;;;;;5158468;27;20061;-67
2023/08/29 10:00:57;;;;;;;2.08;0.60;;;19.30;99.90;;;;;;5139665;27;20486;-67
2023/08/29 10:03:23;;;;;;;1.33;0.47;;;19.40;99.90;;;;;;5157665;27;20444;-68
2023/08/29 10:05:51;;;;;;;1.40;0.60;;;19.50;99.90;;;;;;5157770;27;20078;-67
2023/08/29 10:08:23;;;;;;;1.48;0.70;;;19.40;99.90;;;;;;5157916;27;20121;-67
2023/08/29 10:10:50;;;;;;;1.40;0.50;;;19.20;99.90;;;;;;5139823;27;20086;-67
2023/08/29 10:13:18;;;;;;;1.50;0.60;;;19.00;99.90;;;;;;5158146;27;20490;-68
2023/08/29 10:15:46;;;;;;;2.10;0.60;;;19.00;99.90;;;;;;5157710;27;20118;-67
2023/08/29 10:18:13;;;;;;;1.17;0.70;;;18.90;99.90;;;;;;5157780;27;20176;-68
2023/08/29 10:20:43;;;;;;;1.23;0.63;;;18.90;99.90;;;;;;5158142;27;20492;-68
2023/08/29 10:23:11;;;;;;;1.15;0.50;;;19.00;99.90;;;;;;5157152;27;20421;-68
2023/08/29 10:25:38;;;;;;;1.95;0.70;;;19.10;99.90;;;;;;5157216;27;20505;-67
2023/08/29 10:28:08;;;;;;;1.70;0.65;;;19.20;99.90;;;;;;5139445;27;20035;-67
2023/08/29 10:30:34;;;;;;;1.00;0.52;;;19.40;99.90;;;;;;5155006;27;20043;-67
2023/08/29 10:33:02;;;;;;;2.30;0.60;;;19.50;99.90;;;;;;5136596;27;20487;-68
2023/08/29 10:35:31;;;;;;;1.02;0.50;;;19.50;99.90;;;;;;5136933;27;20102;-67
2023/08/29 10:38:00;;;;;;;1.88;0.50;;;19.40;99.90;;;;;;5136422;27;20035;-67
2023/08/29 10:40:36;;;;;;;1.58;0.50;;;19.30;99.90;;;;;;5136101;27;20054;-69
2023/08/29 10:43:03;;;;;;;2.00;0.60;;;19.40;99.90;;;;;;5141863;27;20453;-68
2023/08/29 10:45:48;;;;;;;0.95;0.55;;;19.40;99.90;;;;;;5120372;27;20066;-68
2023/08/29 10:48:21;;;;;;;1.73;0.60;;;19.30;99.90;;;;;;5157176;27;20418;-68
2023/08/29 10:51:08;;;;;;;1.17;0.50;;;19.40;99.90;;;;;;5124732;27;20055;-68
2023/08/29 10:53:45;;;;;;;1.20;0.65;;;19.40;99.90;;;;;;5136691;27;20100;-67
2023/08/29 10:56:12;;;;;;;1.95;0.50;;;19.30;99.90;;;;;;5140224;27;20543;-68
2023/08/29 10:58:40;;;;;;;2.40;0.80;;;19.30;99.90;;;;;;5156674;27;20121;-67
2023/08/29 11:01:07;;;;;;;1.90;0.57;;;19.30;99.90;;;;;;5156518;27;20050;-68
2023/08/29 11:03:48;;;;;;;1.30;0.60;;;19.30;99.90;;;;;;5156842;27;20047;-68
2023/08/29 11:06:15;;;;;;;1.90;0.80;;;19.40;99.90;;;;;;5137113;27;20042;-68
2023/08/29 11:08:41;;;;;;;1.30;0.60;;;19.40;99.90;;;;;;5156492;27;20054;-68
2023/08/29 11:11:18;;;;;;;1.10;0.50;;;19.40;99.90;;;;;;5156902;27;20129;-67
2023/08/29 11:13:57;;;;;;;1.58;0.52;;;19.50;99.90;;;;;;5156616;27;20039;-67
2023/08/29 11:16:23;;;;;;;1.30;0.70;;;19.80;99.90;;;;;;5156556;27;20127;-67
2023/08/29 11:19:07;;;;;;;1.00;0.60;;;19.90;99.90;;;;;;5139443;27;20047;-67
2023/08/29 11:21:33;;;;;;;2.00;0.52;;;20.00;99.90;;;;;;5134900;27;20046;-67
2023/08/29 11:23:59;;;;;;;1.67;0.63;;;20.00;99.90;;;;;;5156282;27;20100;-67
2023/08/29 11:26:25;;;;;;;1.73;0.70;;;20.10;99.90;;;;;;5155910;27;20046;-67
2023/08/29 11:28:51;;;;;;;2.00;0.75;;;20.00;99.90;;;;;;5135394;27;20050;-68
2023/08/29 11:31:18;;;;;;;1.13;0.63;;;19.90;99.90;;;;;;5143910;27;20126;-67
2023/08/29 11:33:48;;;;;;;1.00;0.60;;;19.90;99.90;;;;;;5142885;27;20074;-67
2023/08/29 11:36:15;;;;;;;2.83;0.60;;;19.80;99.90;;;;;;5143707;27;20173;-67
2023/08/29 11:38:42;;;;;;;1.30;0.63;;;19.60;99.90;;;;;;5137240;27;20418;-67
2023/08/29 11:41:10;;;;;;;1.25;0.50;;;19.60;99.90;;;;;;5143893;27;20051;-67
2023/08/29 11:43:36;;;;;;;1.38;0.60;;;19.50;99.90;;;;;;5150499;27;20111;-67
2023/08/29 11:46:03;;;;;;;2.25;0.50;;;19.40;99.90;;;;;;5151182;27;20513;-67
2023/08/29 11:48:31;;;;;;;1.30;0.63;;;19.30;99.90;;;;;;5155555;27;20095;-67
2023/08/29 11:51:04;;;;;;;1.38;0.70;;;19.20;99.90;;;;;;5155358;27;20073;-67
2023/08/29 11:53:35;;;;;;;1.02;0.60;;;19.20;99.90;;;;;;5155410;27;20072;-66
2023/08/29 11:56:05;;;;;;;1.65;0.60;;;19.20;99.90;;;;;;5136290;27;20051;-67
2023/08/29 11:58:35;;;;;;;2.65;0.50;;;19.20;99.90;;;;;;5137083;27;20035;-67
2023/08/29 12:01:02;;;;;;;1.25;0.60;;;19.20;99.90;;;;;;5155125;27;20042;-66
2023/08/29 12:03:28;;;;;;;1.05;0.50;;;19.20;99.90;;;;;;5155233;27;20042;-66
2023/08/29 12:05:57;;;;;;;1.10;0.50;;;19.20;99.90;;;;;;5154754;27;20035;-66
2023/08/29 12:08:42;;;;;;;1.90;0.60;;;19.10;99.90;;;;;;5155445;27;20050;-66
2023/08/29 12:11:09;;;;;;;1.73;0.60;;;19.10;99.90;;;;;;5154751;27;20390;-66
2023/08/29 12:13:38;;;;;;;1.45;0.70;;;18.90;99.90;;;;;;5154483;27;20141;-66
2023/08/29 12:16:14;;;;;;;1.45;0.55;;;18.80;99.90;;;;;;5154495;27;20038;-66
2023/08/29 12:18:40;;;;;;;1.92;0.70;;;18.80;99.90;;;;;;5154692;27;20047;-66
2023/08/29 12:21:20;;;;;;;2.13;0.60;;;18.60;99.90;;;;;;5154827;27;20426;-66
2023/08/29 12:23:46;;;;;;;1.48;0.60;;;18.60;99.90;;;;;;5154144;27;20495;-65
2023/08/29 12:26:13;;;;;;;2.30;0.60;;;18.50;99.90;;;;;;5153975;27;20129;-66
2023/08/29 12:28:38;;;;;;;2.17;0.98;;;18.50;99.90;;;;;;5153376;27;20064;-67
2023/08/29 12:31:06;;;;;;;4.55;0.98;;;18.50;99.90;;;;;;5151378;27;20046;-66
2023/08/29 12:33:32;;;;;;;3.63;0.98;;;18.40;99.90;;;;;;5150898;27;20042;-66
2023/08/29 12:35:58;;;;;;;1.42;0.70;;;18.40;99.90;;;;;;5153543;27;20111;-66
2023/08/29 12:38:26;;;;;;;3.30;0.90;;;18.30;99.90;;;;;;5151197;27;20137;-66
2023/08/29 12:40:52;;;;;;;2.00;0.70;;;18.30;99.90;;;;;;5154079;27;20038;-66
2023/08/29 12:43:19;;;;;;;2.30;1.25;;;18.30;99.90;;;;;;5154233;27;20047;-66
2023/08/29 12:45:45;;;;;;;2.00;1.10;;;18.10;99.90;;;;;;5153388;27;20421;-66
2023/08/29 12:48:13;;;;;;;2.72;1.55;;;18.00;99.90;;;;;;5153792;27;20107;-66